BARNEGAT, NJ - 209

GPS Positions

GPS Time
Latitude
Degrees
Longitude
Degrees
Gap
 
Distance
NM
Speed
Knots
Direction
Degrees
2020 Sep 03, 23:51 39.76961° -73.76989° 30 min 0.01 0.00
57°
2020 Sep 03, 23:21 39.76960° -73.76991° 30 min 0.01 0.00
90°
2020 Sep 03, 22:51 39.76960° -73.76995° 30 min 0.01 0.00
72°
2020 Sep 03, 22:21 39.76958° -73.77000° 30 min 0.01 0.00
2020 Sep 03, 21:51 39.76958° -73.77000° 30 min 0.01 0.00
2020 Sep 03, 21:21 39.76955° -73.77000° 30 min 0.01 0.00
38°
2020 Sep 03, 20:51 39.76953° -73.77002° 30 min 0.02 0.00
2020 Sep 03, 20:21 39.76952° -73.77002° 30 min 0.02 0.00
330°
2020 Sep 03, 19:51 39.76949° -73.77000° 30 min 0.02 0.00
322°
2020 Sep 03, 19:21 39.76947° -73.76997° 30 min 0.01 0.01
311°
2020 Sep 03, 18:51 39.76944° -73.76993° 30 min 0.01 0.00
333°
2020 Sep 03, 18:21 39.76941° -73.76991° 30 min 0.01 0.00
303°
2020 Sep 03, 17:51 39.76940° -73.76989° 30 min 0.01 0.00
293°
2020 Sep 03, 17:21 39.76939° -73.76987° 30 min 0.01 0.00
180°
2020 Sep 03, 16:51 39.76940° -73.76987° 30 min 0.01 0.00
2020 Sep 03, 16:21 39.76939° -73.76987° 30 min 0.01 0.00
270°
2020 Sep 03, 15:51 39.76939° -73.76984° 30 min 0.01 0.00
180°
2020 Sep 03, 15:21 39.76940° -73.76984° 30 min 0.01 0.00
237°
2020 Sep 03, 14:51 39.76941° -73.76982° 30 min 0.01 0.00
180°
2020 Sep 03, 14:21 39.76942° -73.76982° 30 min 0.01 0.00
2020 Sep 03, 13:51 39.76942° -73.76982° 30 min 0.01 0.00
180°
2020 Sep 03, 13:21 39.76944° -73.76982° 30 min 0.01 0.00
180°
2020 Sep 03, 12:51 39.76945° -73.76982° 30 min 0.01 0.00
180°
2020 Sep 03, 12:21 39.76947° -73.76982° 30 min 0.01 0.00
180°
2020 Sep 03, 11:51 39.76949° -73.76982° 30 min 0.01 0.00
212°
2020 Sep 03, 11:21 39.76951° -73.76981° 30 min 0.01 0.00
180°
2020 Sep 03, 10:51 39.76952° -73.76981° 30 min 0.01 0.00
180°
2020 Sep 03, 10:21 39.76953° -73.76981° 30 min 0.01 0.00
159°
2020 Sep 03, 09:51 39.76956° -73.76982° 30 min 0.01 0.00
180°
2020 Sep 03, 09:21 39.76957° -73.76982° 30 min 0.01 0.00
2020 Sep 03, 08:51 39.76956° -73.76982° 30 min 0.01 0.00
285°
2020 Sep 03, 08:21 39.76955° -73.76978° 30 min 0.00 0.00
180°
2020 Sep 03, 07:51 39.76957° -73.76978° 30 min 0.00 0.00
317°
2020 Sep 03, 07:21 39.76955° -73.76976° 30 min 0.00 0.00
303°
2020 Sep 03, 06:51 39.76954° -73.76974° 30 min 0.00 0.00
2020 Sep 03, 06:21 39.76952° -73.76974° 30 min 0.00 0.00
270°
2020 Sep 03, 05:51 39.76952° -73.76971° 30 min 0.00 0.00
43°
2020 Sep 03, 05:21 39.76950° -73.76974° 30 min 0.00 0.00
180°
2020 Sep 03, 04:51 39.76951° -73.76974° 30 min 0.00 0.00
2020 Sep 03, 04:21 39.76951° -73.76974° 30 min 0.00 0.00
180°
2020 Sep 03, 03:51 39.76953° -73.76974° 30 min 0.00 0.00
2020 Sep 03, 03:21 39.76953° -73.76974° 30 min 0.00 0.00
180°
2020 Sep 03, 02:51 39.76954° -73.76974° 30 min 0.00 0.00
123°
2020 Sep 03, 02:21 39.76955° -73.76976° 30 min 0.00 0.00
180°
2020 Sep 03, 01:51 39.76956° -73.76976° 30 min 0.00 0.00
2020 Sep 03, 01:21 39.76956° -73.76976° 30 min 0.00 0.01
123°
2020 Sep 03, 00:51 39.76958° -73.76981° 30 min 0.01 0.00
134°
2020 Sep 03, 00:21 39.76960° -73.76982° 30 min 0.01 0.00
90°
2020 Sep 02, 23:51 39.76960° -73.76984° 30 min 0.01 0.00
90°
2020 Sep 02, 23:21 39.76960° -73.76987° 30 min 0.01 0.00
90°
2020 Sep 02, 22:51 39.76960° -73.76989° 30 min 0.01 0.00
69°
2020 Sep 02, 22:21 39.76958° -73.76993° 30 min 0.01 0.00
2020 Sep 02, 21:51 39.76958° -73.76993° 30 min 0.01 0.01
57°
2020 Sep 02, 21:21 39.76956° -73.76997° 30 min 0.01 0.00
293°
2020 Sep 02, 20:51 39.76955° -73.76995° 30 min 0.01 0.00
57°
2020 Sep 02, 20:21 39.76954° -73.76997° 30 min 0.01 0.00
322°
2020 Sep 02, 19:51 39.76952° -73.76995° 30 min 0.01 0.00
43°
2020 Sep 02, 19:21 39.76950° -73.76997° 30 min 0.01 0.01
327°
2020 Sep 02, 18:51 39.76945° -73.76993° 30 min 0.01 0.00
308°
2020 Sep 02, 18:21 39.76942° -73.76989° 30 min 0.01 0.00
303°
2020 Sep 02, 17:51 39.76941° -73.76987° 30 min 0.01 0.00
237°
2020 Sep 02, 17:21 39.76942° -73.76984° 30 min 0.01 0.00
270°
2020 Sep 02, 16:51 39.76942° -73.76982° 30 min 0.01 0.00
2020 Sep 02, 16:21 39.76942° -73.76982° 30 min 0.01 0.00
2020 Sep 02, 15:51 39.76942° -73.76982° 30 min 0.01 0.00
180°
2020 Sep 02, 15:21 39.76944° -73.76982° 30 min 0.01 0.00
226°
2020 Sep 02, 14:51 39.76945° -73.76981° 30 min 0.01 0.00
180°
2020 Sep 02, 14:21 39.76945° -73.76981° 30 min 0.01 0.00
2020 Sep 02, 13:51 39.76945° -73.76981° 30 min 0.01 0.00
2020 Sep 02, 13:21 39.76945° -73.76981° 30 min 0.01 0.00
123°
2020 Sep 02, 12:51 39.76945° -73.76982° 30 min 0.01 0.00
123°
2020 Sep 02, 12:21 39.76947° -73.76984° 30 min 0.01 0.01
165°
2020 Sep 02, 11:51 39.76953° -73.76987° 30 min 0.01 0.00
108°
2020 Sep 02, 11:21 39.76954° -73.76991° 30 min 0.01 0.01
145°
2020 Sep 02, 10:51 39.76958° -73.76995° 30 min 0.01 0.00
2020 Sep 02, 10:21 39.76958° -73.76995° 30 min 0.01 0.00
2020 Sep 02, 09:51 39.76957° -73.76995° 30 min 0.01 0.00
43°
2020 Sep 02, 09:21 39.76955° -73.76997° 30 min 0.01 0.00
2020 Sep 02, 08:51 39.76955° -73.76997° 30 min 0.01 0.00
57°
2020 Sep 02, 08:21 39.76954° -73.77000° 30 min 0.01 0.00
2020 Sep 02, 07:51 39.76953° -73.77000° 30 min 0.01 0.00
2020 Sep 02, 07:21 39.76952° -73.77000° 30 min 0.01 0.01
337°
2020 Sep 02, 06:51 39.76948° -73.76997° 30 min 0.01 0.00
270°
2020 Sep 02, 06:21 39.76948° -73.76995° 30 min 0.01 0.00
322°
2020 Sep 02, 05:51 39.76945° -73.76993° 30 min 0.01 0.00
339°
2020 Sep 02, 05:21 39.76942° -73.76991° 30 min 0.01 0.00
180°
2020 Sep 02, 04:51 39.76945° -73.76991° 30 min 0.01 0.00
270°
2020 Sep 02, 04:21 39.76945° -73.76989° 30 min 0.01 0.00
2020 Sep 02, 03:51 39.76945° -73.76989° 30 min 0.01 0.00
2020 Sep 02, 03:21 39.76944° -73.76989° 30 min 0.01 0.00
237°
2020 Sep 02, 02:51 39.76945° -73.76987° 30 min 0.01 0.00
2020 Sep 02, 02:21 39.76945° -73.76987° 30 min 0.01 0.00
2020 Sep 02, 01:51 39.76945° -73.76987° 30 min 0.01 0.00
90°
2020 Sep 02, 01:21 39.76945° -73.76991° 30 min 0.01 0.00
223°
2020 Sep 02, 00:51 39.76947° -73.76989° 30 min 0.01 0.00
128°
2020 Sep 02, 00:21 39.76949° -73.76993° 30 min 0.01 0.00
118°
2020 Sep 01, 23:51 39.76951° -73.76997° 30 min 0.01 0.00
180°
2020 Sep 01, 23:21 39.76952° -73.76997° 30 min 0.01 0.00
123°
2020 Sep 01, 22:51 39.76953° -73.77000° 30 min 0.01 0.00
2020 Sep 01, 22:21 39.76953° -73.77000° 30 min 0.01 0.00
2020 Sep 01, 21:51 39.76952° -73.77000° 30 min 0.01 0.00
2020 Sep 01, 21:21 39.76951° -73.77000° 30 min 0.01 0.00
43°
2020 Sep 01, 20:51 39.76949° -73.77002° 30 min 0.02 0.00
180°
2020 Sep 01, 20:21 39.76951° -73.77002° 30 min 0.02 0.00
2020 Sep 01, 19:51 39.76951° -73.77002° 30 min 0.02 0.00
180°
2020 Sep 01, 19:21 39.76952° -73.77002° 30 min 0.02 0.00
2020 Sep 01, 18:51 39.76952° -73.77002° 30 min 0.02 0.01
2020 Sep 01, 18:21 39.76948° -73.77002° 30 min 0.02 0.00
330°
2020 Sep 01, 17:51 39.76945° -73.77000° 30 min 0.02 0.00
288°
2020 Sep 01, 17:21 39.76944° -73.76995° 30 min 0.01 0.01
284°
2020 Sep 01, 16:51 39.76942° -73.76989° 30 min 0.01 0.00
180°
2020 Sep 01, 16:21 39.76944° -73.76989° 30 min 0.01 0.00
2020 Sep 01, 15:51 39.76944° -73.76989° 30 min 0.01 0.00
237°
2020 Sep 01, 15:21 39.76945° -73.76987° 30 min 0.01 0.00
247°
2020 Sep 01, 14:51 39.76945° -73.76984° 30 min 0.01 0.00
180°
2020 Sep 01, 14:21 39.76949° -73.76984° 30 min 0.01 0.00
223°
2020 Sep 01, 13:51 39.76951° -73.76982° 30 min 0.01 0.00
153°
2020 Sep 01, 13:21 39.76954° -73.76984° 30 min 0.01 0.00
137°
2020 Sep 01, 12:51 39.76956° -73.76987° 30 min 0.01 0.01
180°
2020 Sep 01, 12:21 39.76961° -73.76987° 30 min 0.01 0.00
2020 Sep 01, 11:51 39.76960° -73.76987° 30 min 0.01 0.00
123°
2020 Sep 01, 11:21 39.76961° -73.76989° 30 min 0.01 0.00
2020 Sep 01, 10:51 39.76960° -73.76989° 30 min 0.01 0.00
90°
2020 Sep 01, 10:21 39.76960° -73.76991° 30 min 0.01 0.00
153°
2020 Sep 01, 09:51 39.76962° -73.76993° 30 min 0.01 0.00
2020 Sep 01, 09:21 39.76961° -73.76993° 30 min 0.01 0.00
57°
2020 Sep 01, 08:51 39.76960° -73.76995° 30 min 0.01 0.00
270°
2020 Sep 01, 08:21 39.76960° -73.76993° 30 min 0.01 0.00
90°
2020 Sep 01, 07:51 39.76960° -73.76995° 30 min 0.01 0.00
90°
2020 Sep 01, 07:21 39.76960° -73.76997° 30 min 0.01 0.00
2020 Sep 01, 06:51 39.76958° -73.76997° 30 min 0.01 0.00
252°
2020 Sep 01, 06:21 39.76960° -73.76993° 30 min 0.01 0.00
2020 Sep 01, 05:51 39.76960° -73.76993° 30 min 0.01 0.00
270°
2020 Sep 01, 05:21 39.76960° -73.76991° 30 min 0.01 0.00
333°
2020 Sep 01, 04:51 39.76956° -73.76989° 30 min 0.01 0.00
282°
2020 Sep 01, 04:21 39.76955° -73.76984° 30 min 0.01 0.00
2020 Sep 01, 03:51 39.76952° -73.76984° 30 min 0.01 0.00
2020 Sep 01, 03:21 39.76952° -73.76984° 30 min 0.01 0.00
303°
2020 Sep 01, 02:51 39.76951° -73.76982° 30 min 0.01 0.00
67°
2020 Sep 01, 02:21 39.76950° -73.76984° 30 min 0.01 0.00
247°
2020 Sep 01, 01:51 39.76951° -73.76982° 30 min 0.01 0.00
2020 Sep 01, 01:21 39.76951° -73.76982° 30 min 0.01 0.00
142°
2020 Sep 01, 00:51 39.76953° -73.76984° 30 min 0.01 0.00
123°
2020 Sep 01, 00:21 39.76954° -73.76987° 30 min 0.01 0.00
180°
2020 Aug 31, 23:51 39.76955° -73.76987° 30 min 0.01 0.00
180°
2020 Aug 31, 23:21 39.76956° -73.76987° 30 min 0.01 0.00
78°
2020 Aug 31, 22:51 39.76955° -73.76991° 30 min 0.01 0.00
247°
2020 Aug 31, 22:21 39.76956° -73.76989° 30 min 0.01 0.00
123°
2020 Aug 31, 21:51 39.76957° -73.76991° 30 min 0.01 0.00
90°
2020 Aug 31, 21:21 39.76957° -73.76993° 30 min 0.01 0.00
180°
2020 Aug 31, 20:51 39.76958° -73.76993° 30 min 0.01 0.00
38°
2020 Aug 31, 20:21 39.76956° -73.76995° 30 min 0.01 0.00
2020 Aug 31, 19:51 39.76955° -73.76995° 30 min 0.01 0.00
180°
2020 Aug 31, 19:21 39.76956° -73.76995° 30 min 0.01 0.00
90°
2020 Aug 31, 18:51 39.76956° -73.76997° 30 min 0.01 0.00
2020 Aug 31, 18:21 39.76953° -73.76997° 30 min 0.01 0.00
2020 Aug 31, 17:51 39.76950° -73.76997° 30 min 0.01 0.00
322°
2020 Aug 31, 17:21 39.76948° -73.76995° 30 min 0.01 0.00
322°
2020 Aug 31, 16:51 39.76945° -73.76993° 30 min 0.01 0.00
2020 Aug 31, 16:21 39.76945° -73.76993° 30 min 0.01 0.00
270°
2020 Aug 31, 15:51 39.76945° -73.76991° 30 min 0.01 0.00
303°
2020 Aug 31, 15:21 39.76944° -73.76989° 30 min 0.01 0.00
2020 Aug 31, 14:51 39.76944° -73.76989° 30 min 0.01 0.00
223°
2020 Aug 31, 14:21 39.76945° -73.76987° 30 min 0.01 0.00
90°
2020 Aug 31, 13:51 39.76945° -73.76989° 30 min 0.01 0.00
180°
2020 Aug 31, 13:21 39.76947° -73.76989° 30 min 0.01 0.00
180°
2020 Aug 31, 12:51 39.76948° -73.76989° 30 min 0.01 0.00
57°
2020 Aug 31, 12:21 39.76947° -73.76991° 30 min 0.01 0.00
2020 Aug 31, 11:51 39.76947° -73.76991° 30 min 0.01 0.00
153°
2020 Aug 31, 11:21 39.76949° -73.76993° 30 min 0.01 0.00
137°
2020 Aug 31, 10:51 39.76951° -73.76995° 30 min 0.01 0.00
123°
2020 Aug 31, 10:21 39.76952° -73.76997° 30 min 0.01 0.00
2020 Aug 31, 09:51 39.76951° -73.76997° 30 min 0.01 0.00
142°
2020 Aug 31, 09:21 39.76953° -73.77000° 30 min 0.01 0.00
2020 Aug 31, 08:51 39.76953° -73.77000° 30 min 0.01 0.00
2020 Aug 31, 08:21 39.76951° -73.77000° 30 min 0.01 0.00
67°
2020 Aug 31, 07:51 39.76950° -73.77002° 30 min 0.02 0.00
247°
2020 Aug 31, 07:21 39.76951° -73.77000° 30 min 0.01 0.00
2020 Aug 31, 06:51 39.76950° -73.77000° 30 min 0.01 0.00
2020 Aug 31, 06:21 39.76947° -73.77000° 30 min 0.02 0.00
288°
2020 Aug 31, 05:51 39.76945° -73.76995° 30 min 0.01 0.00
317°
2020 Aug 31, 05:21 39.76944° -73.76993° 30 min 0.01 0.01
296°
2020 Aug 31, 04:51 39.76941° -73.76987° 30 min 0.01 0.00
270°
2020 Aug 31, 04:21 39.76941° -73.76982° 30 min 0.01 0.00
207°
2020 Aug 31, 03:51 39.76944° -73.76981° 30 min 0.01 0.00
223°
2020 Aug 31, 03:21 39.76945° -73.76978° 30 min 0.01 0.00
180°
2020 Aug 31, 02:51 39.76947° -73.76978° 30 min 0.01 0.00
270°
2020 Aug 31, 02:21 39.76947° -73.76976° 30 min 0.01 0.00
237°
2020 Aug 31, 01:51 39.76948° -73.76974° 30 min 0.01 0.00
2020 Aug 31, 01:21 39.76948° -73.76974° 30 min 0.01 0.00
90°
2020 Aug 31, 00:51 39.76948° -73.76976° 30 min 0.01 0.00
180°
2020 Aug 31, 00:21 39.76949° -73.76976° 30 min 0.01 0.00
90°
2020 Aug 30, 23:51 39.76949° -73.76978° 30 min 0.01 0.00
180°
2020 Aug 30, 23:21 39.76951° -73.76978° 30 min 0.01 0.00
90°
2020 Aug 30, 22:51 39.76951° -73.76981° 30 min 0.01 0.00
134°
2020 Aug 30, 22:21 39.76952° -73.76982° 30 min 0.01 0.00
314°
2020 Aug 30, 21:51 39.76951° -73.76981° 30 min 0.01 0.00
75°
2020 Aug 30, 21:21 39.76950° -73.76984° 30 min 0.01 0.00
90°
2020 Aug 30, 20:51 39.76950° -73.76989° 30 min 0.01 0.00
105°
2020 Aug 30, 20:21 39.76951° -73.76993° 30 min 0.01 0.00
2020 Aug 30, 19:51 39.76950° -73.76993° 30 min 0.01 0.00
2020 Aug 30, 19:21 39.76947° -73.76993° 30 min 0.01 0.01
123°
2020 Aug 30, 18:51 39.76949° -73.76997° 30 min 0.01 0.00
2020 Aug 30, 18:21 39.76945° -73.76997° 30 min 0.01 0.00
298°
2020 Aug 30, 17:51 39.76944° -73.76993° 30 min 0.01 0.00
2020 Aug 30, 17:21 39.76942° -73.76993° 30 min 0.01 0.00
314°
2020 Aug 30, 16:51 39.76941° -73.76991° 30 min 0.01 0.00
270°
2020 Aug 30, 16:21 39.76941° -73.76989° 30 min 0.01 0.00
2020 Aug 30, 15:51 39.76940° -73.76989° 30 min 0.01 0.00
293°
2020 Aug 30, 15:21 39.76939° -73.76987° 30 min 0.01 0.00
247°
2020 Aug 30, 14:51 39.76940° -73.76984° 30 min 0.01 0.00
237°
2020 Aug 30, 14:21 39.76941° -73.76982° 30 min 0.01 0.00
2020 Aug 30, 13:51 39.76941° -73.76982° 30 min 0.01 0.00
180°
2020 Aug 30, 13:21 39.76944° -73.76982° 30 min 0.01 0.00
2020 Aug 30, 12:51 39.76942° -73.76982° 30 min 0.01 0.00
2020 Aug 30, 12:21 39.76941° -73.76982° 30 min 0.01 0.00
2020 Aug 30, 11:51 39.76941° -73.76982° 30 min 0.01 0.00
2020 Aug 30, 11:21 39.76941° -73.76982° 30 min 0.01 0.00
270°
2020 Aug 30, 10:51 39.76941° -73.76981° 30 min 0.01 0.00
134°
2020 Aug 30, 10:21 39.76942° -73.76982° 30 min 0.01 0.00
2020 Aug 30, 09:51 39.76942° -73.76982° 30 min 0.01 0.00
226°
2020 Aug 30, 09:21 39.76944° -73.76981° 30 min 0.01 0.00
90°
2020 Aug 30, 08:51 39.76944° -73.76984° 30 min 0.01 0.00
237°
2020 Aug 30, 08:21 39.76945° -73.76981° 30 min 0.01 0.00
90°
2020 Aug 30, 07:51 39.76945° -73.76982° 30 min 0.01 0.00
303°
2020 Aug 30, 07:21 39.76945° -73.76981° 30 min 0.01 0.00
247°
2020 Aug 30, 06:51 39.76945° -73.76978° 30 min 0.01 0.00
2020 Aug 30, 06:21 39.76945° -73.76978° 30 min 0.01 0.00
207°
2020 Aug 30, 05:51 39.76949° -73.76976° 30 min 0.01 0.00
2020 Aug 30, 05:21 39.76948° -73.76976° 30 min 0.01 0.00
210°
2020 Aug 30, 04:51 39.76951° -73.76974° 30 min 0.00 0.00
180°
2020 Aug 30, 04:21 39.76952° -73.76974° 30 min 0.00 0.00
2020 Aug 30, 03:51 39.76952° -73.76974° 30 min 0.00 0.00
2020 Aug 30, 03:21 39.76952° -73.76974° 30 min 0.00 0.00
2020 Aug 30, 02:51 39.76952° -73.76974° 30 min 0.00 0.00
303°
2020 Aug 30, 02:21 39.76951° -73.76971° 30 min 0.00 0.00
180°
2020 Aug 30, 01:51 39.76952° -73.76971° 30 min 0.00 0.00
57°
2020 Aug 30, 01:21 39.76951° -73.76974° 30 min 0.00 0.00
180°
2020 Aug 30, 00:51 39.76953° -73.76974° 30 min 0.00 0.00
90°
2020 Aug 30, 00:21 39.76953° -73.76976° 30 min 0.00 0.00
180°
2020 Aug 29, 23:51 39.76954° -73.76976° 30 min 0.00 0.00
137°
2020 Aug 29, 23:21 39.76956° -73.76978° 30 min 0.00 0.00
180°
2020 Aug 29, 22:51 39.76957° -73.76978° 30 min 0.00 0.00
2020 Aug 29, 22:21 39.76956° -73.76978° 30 min 0.00 0.00
2020 Aug 29, 21:51 39.76956° -73.76978° 30 min 0.00 0.00
2020 Aug 29, 21:21 39.76956° -73.76978° 30 min 0.00 0.00
153°
2020 Aug 29, 20:51 39.76960° -73.76981° 30 min 0.01 0.00
69°
2020 Aug 29, 20:21 39.76958° -73.76984° 30 min 0.01 0.00
2020 Aug 29, 19:51 39.76957° -73.76984° 30 min 0.01 0.00
2020 Aug 29, 19:21 39.76957° -73.76984° 30 min 0.01 0.00
90°
2020 Aug 29, 18:51 39.76957° -73.76987° 30 min 0.01 0.00
2020 Aug 29, 18:21 39.76956° -73.76987° 30 min 0.01 0.00
2020 Aug 29, 17:51 39.76956° -73.76987° 30 min 0.01 0.00
2020 Aug 29, 17:21 39.76956° -73.76987° 30 min 0.01 0.00
270°
2020 Aug 29, 16:51 39.76956° -73.76982° 30 min 0.01 0.01
316°
2020 Aug 29, 16:21 39.76953° -73.76978° 30 min 0.01 0.01
157°
2020 Aug 29, 15:51 39.76957° -73.76981° 30 min 0.01 0.00
303°
2020 Aug 29, 15:21 39.76956° -73.76978° 30 min 0.00 0.01
320°
2020 Aug 29, 14:51 39.76952° -73.76974° 30 min 0.00 0.00
123°
2020 Aug 29, 14:21 39.76953° -73.76976° 30 min 0.00 0.00
270°
2020 Aug 29, 13:51 39.76953° -73.76974° 30 min 0.00 0.00
38°
2020 Aug 29, 13:21 39.76951° -73.76976° 30 min 0.00 0.00
2020 Aug 29, 12:51 39.76948° -73.76976° 30 min 0.01 0.00
123°
2020 Aug 29, 12:21 39.76949° -73.76978° 30 min 0.01 0.00
2020 Aug 29, 11:51 39.76945° -73.76978° 30 min 0.01 0.00
180°
2020 Aug 29, 11:21 39.76949° -73.76978° 30 min 0.01 0.00
90°
2020 Aug 29, 10:51 39.76949° -73.76981° 30 min 0.01 0.00
2020 Aug 29, 10:21 39.76948° -73.76981° 30 min 0.01 0.00
90°
2020 Aug 29, 09:51 39.76948° -73.76982° 30 min 0.01 0.00
180°
2020 Aug 29, 09:21 39.76950° -73.76982° 30 min 0.01 0.00
137°
2020 Aug 29, 08:51 39.76952° -73.76984° 30 min 0.01 0.00
237°
2020 Aug 29, 08:21 39.76953° -73.76982° 30 min 0.01 0.00
150°
2020 Aug 29, 07:51 39.76956° -73.76984° 30 min 0.01 0.00
90°
2020 Aug 29, 07:21 39.76956° -73.76987° 30 min 0.01 0.00
218°
2020 Aug 29, 06:51 39.76958° -73.76984° 30 min 0.01 0.00
90°
2020 Aug 29, 06:21 39.76958° -73.76987° 30 min 0.01 0.00
303°
2020 Aug 29, 05:51 39.76957° -73.76984° 30 min 0.01 0.00
2020 Aug 29, 05:21 39.76956° -73.76984° 30 min 0.01 0.00
218°
2020 Aug 29, 04:51 39.76958° -73.76982° 30 min 0.01 0.00
2020 Aug 29, 04:21 39.76956° -73.76982° 30 min 0.01 0.00
2020 Aug 29, 03:51 39.76955° -73.76982° 30 min 0.01 0.01
263°
2020 Aug 29, 03:21 39.76956° -73.76974° 30 min 0.00 0.01
2020 Aug 29, 02:51 39.76952° -73.76974° 30 min 0.00 0.00
57°
2020 Aug 29, 02:21 39.76951° -73.76976° 30 min 0.00 0.00
2020 Aug 29, 01:51 39.76951° -73.76976° 30 min 0.00 0.00
2020 Aug 29, 01:21 39.76948° -73.76976° 30 min 0.01 0.00
2020 Aug 29, 00:51 39.76947° -73.76976° 30 min 0.01 0.00
123°
2020 Aug 29, 00:21 39.76948° -73.76978° 30 min 0.01 0.00
2020 Aug 28, 23:51 39.76948° -73.76978° 30 min 0.01 0.00
218°
2020 Aug 28, 23:21 39.76950° -73.76976° 30 min 0.01 0.00
180°
2020 Aug 28, 22:51 39.76951° -73.76976° 30 min 0.00 0.00
2020 Aug 28, 22:21 39.76950° -73.76976° 30 min 0.01 0.01
123°
2020 Aug 28, 21:51 39.76954° -73.76984° 30 min 0.01 0.00
123°
2020 Aug 28, 21:21 39.76955° -73.76987° 30 min 0.01 0.00
90°
2020 Aug 28, 20:51 39.76955° -73.76991° 30 min 0.01 0.00
180°
2020 Aug 28, 20:21 39.76956° -73.76991° 30 min 0.01 0.00
75°
2020 Aug 28, 19:51 39.76955° -73.76995° 30 min 0.01 0.00
57°
2020 Aug 28, 19:21 39.76954° -73.76997° 30 min 0.01 0.00
2020 Aug 28, 18:51 39.76952° -73.76997° 30 min 0.01 0.00
90°
2020 Aug 28, 18:21 39.76952° -73.77000° 30 min 0.01 0.00
303°
2020 Aug 28, 17:51 39.76951° -73.76997° 30 min 0.01 0.00
2020 Aug 28, 17:21 39.76951° -73.76997° 30 min 0.01 0.00
2020 Aug 28, 16:51 39.76949° -73.76997° 30 min 0.01 0.00
2020 Aug 28, 16:21 39.76945° -73.76997° 30 min 0.01 0.00
317°
2020 Aug 28, 15:51 39.76944° -73.76995° 30 min 0.01 0.00
270°
2020 Aug 28, 15:21 39.76944° -73.76991° 30 min 0.01 0.00
322°
2020 Aug 28, 14:51 39.76941° -73.76989° 30 min 0.01 0.00
303°
2020 Aug 28, 14:21 39.76940° -73.76987° 30 min 0.01 0.00
180°
2020 Aug 28, 13:51 39.76941° -73.76987° 30 min 0.01 0.00
303°
2020 Aug 28, 13:21 39.76940° -73.76984° 30 min 0.01 0.00
180°
2020 Aug 28, 12:51 39.76941° -73.76984° 30 min 0.01 0.00
180°
2020 Aug 28, 12:21 39.76942° -73.76984° 30 min 0.01 0.00
270°
2020 Aug 28, 11:51 39.76942° -73.76982° 30 min 0.01 0.00
270°
2020 Aug 28, 11:21 39.76942° -73.76978° 30 min 0.01 0.00
150°
2020 Aug 28, 10:51 39.76945° -73.76981° 30 min 0.01 0.00
57°
2020 Aug 28, 10:21 39.76945° -73.76982° 30 min 0.01 0.00
237°
2020 Aug 28, 09:51 39.76945° -73.76981° 30 min 0.01 0.00
2020 Aug 28, 09:21 39.76945° -73.76981° 30 min 0.01 0.00
180°
2020 Aug 28, 08:51 39.76947° -73.76981° 30 min 0.01 0.01
90°
2020 Aug 28, 08:21 39.76947° -73.76987° 30 min 0.01 0.01
134°
2020 Aug 28, 07:51 39.76950° -73.76991° 30 min 0.01 0.00
123°
2020 Aug 28, 07:21 39.76952° -73.76995° 30 min 0.01 0.00
57°
2020 Aug 28, 06:51 39.76951° -73.76997° 30 min 0.01 0.00
123°
2020 Aug 28, 06:21 39.76952° -73.77000° 30 min 0.01 0.00
180°
2020 Aug 28, 05:51 39.76953° -73.77000° 30 min 0.01 0.00
2020 Aug 28, 05:21 39.76953° -73.77000° 30 min 0.01 0.00
30°
2020 Aug 28, 04:51 39.76950° -73.77002° 30 min 0.02 0.00
322°
2020 Aug 28, 04:21 39.76948° -73.77000° 30 min 0.02 0.00
330°
2020 Aug 28, 03:51 39.76945° -73.76997° 30 min 0.02 0.00
303°
2020 Aug 28, 03:21 39.76944° -73.76995° 30 min 0.01 0.00
322°
2020 Aug 28, 02:51 39.76941° -73.76993° 30 min 0.01 0.00
314°
2020 Aug 28, 02:21 39.76940° -73.76991° 30 min 0.01 0.01
244°
2020 Aug 28, 01:51 39.76944° -73.76982° 30 min 0.01 0.01
224°
2020 Aug 28, 01:21 39.76947° -73.76978° 30 min 0.01 0.00
237°
2020 Aug 28, 00:51 39.76948° -73.76976° 30 min 0.01 0.00
2020 Aug 28, 00:21 39.76948° -73.76976° 30 min 0.01 0.01
57°
2020 Aug 27, 23:51 39.76945° -73.76981° 30 min 0.01 0.00
2020 Aug 27, 23:21 39.76945° -73.76981° 30 min 0.01 0.00
223°
2020 Aug 27, 22:51 39.76947° -73.76978° 30 min 0.01 0.00
2020 Aug 27, 22:21 39.76947° -73.76978° 30 min 0.01 0.00
2020 Aug 27, 21:51 39.76945° -73.76978° 30 min 0.01 0.00
218°
2020 Aug 27, 21:21 39.76948° -73.76976° 30 min 0.01 0.00
123°
2020 Aug 27, 20:51 39.76949° -73.76978° 30 min 0.01 0.00
90°
2020 Aug 27, 20:21 39.76949° -73.76981° 30 min 0.01 0.01
229°
2020 Aug 27, 19:51 39.76952° -73.76976° 30 min 0.00 0.00
90°
2020 Aug 27, 19:21 39.76952° -73.76981° 30 min 0.01 0.00
180°
2020 Aug 27, 18:51 39.76953° -73.76981° 30 min 0.01 0.00
134°
2020 Aug 27, 18:21 39.76954° -73.76982° 30 min 0.01 0.00
118°
2020 Aug 27, 17:51 39.76956° -73.76987° 30 min 0.01 0.00
317°
2020 Aug 27, 17:21 39.76954° -73.76984° 30 min 0.01 0.00
90°
2020 Aug 27, 16:51 39.76954° -73.76987° 30 min 0.01 0.00
180°
2020 Aug 27, 16:21 39.76955° -73.76987° 30 min 0.01 0.00
2020 Aug 27, 15:51 39.76953° -73.76987° 30 min 0.01 0.00
180°
2020 Aug 27, 15:21 39.76955° -73.76987° 30 min 0.01 0.00
270°
2020 Aug 27, 14:51 39.76955° -73.76984° 30 min 0.01 0.00
303°
2020 Aug 27, 14:21 39.76954° -73.76982° 30 min 0.01 0.01
325°
2020 Aug 27, 13:51 39.76950° -73.76978° 30 min 0.01 0.01
339°
2020 Aug 27, 13:21 39.76945° -73.76976° 30 min 0.01 0.00
90°
2020 Aug 27, 12:51 39.76945° -73.76978° 30 min 0.01 0.00
67°
2020 Aug 27, 12:21 39.76945° -73.76981° 30 min 0.01 0.00
2020 Aug 27, 11:51 39.76945° -73.76981° 30 min 0.01 0.00
180°
2020 Aug 27, 11:21 39.76947° -73.76981° 30 min 0.01 0.00
237°
2020 Aug 27, 10:51 39.76948° -73.76978° 30 min 0.01 0.00
180°
2020 Aug 27, 10:21 39.76950° -73.76978° 30 min 0.01 0.00
180°
2020 Aug 27, 09:51 39.76953° -73.76978° 30 min 0.01 0.00
2020 Aug 27, 09:21 39.76953° -73.76978° 30 min 0.01 0.00
142°
2020 Aug 27, 08:51 39.76955° -73.76981° 30 min 0.01 0.00
2020 Aug 27, 08:21 39.76955° -73.76981° 30 min 0.01 0.00
105°
2020 Aug 27, 07:51 39.76956° -73.76984° 30 min 0.01 0.00
123°
2020 Aug 27, 07:21 39.76957° -73.76987° 30 min 0.01 0.00
90°
2020 Aug 27, 06:51 39.76957° -73.76989° 30 min 0.01 0.00
57°
2020 Aug 27, 06:21 39.76956° -73.76991° 30 min 0.01 0.00
237°
2020 Aug 27, 05:51 39.76957° -73.76989° 30 min 0.01 0.00
57°
2020 Aug 27, 05:21 39.76956° -73.76991° 30 min 0.01 0.00
2020 Aug 27, 04:51 39.76956° -73.76991° 30 min 0.01 0.00
134°
2020 Aug 27, 04:21 39.76957° -73.76993° 30 min 0.01 0.00
2020 Aug 27, 03:51 39.76955° -73.76993° 30 min 0.01 0.00
2020 Aug 27, 03:21 39.76954° -73.76993° 30 min 0.01 0.00
2020 Aug 27, 02:51 39.76952° -73.76993° 30 min 0.01 0.00
314°
2020 Aug 27, 02:21 39.76951° -73.76991° 30 min 0.01 0.00
2020 Aug 27, 01:51 39.76948° -73.76991° 30 min 0.01 0.01
311°
2020 Aug 27, 01:21 39.76945° -73.76987° 30 min 0.01 0.00
288°
2020 Aug 27, 00:51 39.76944° -73.76982° 30 min 0.01 0.00
226°
2020 Aug 27, 00:21 39.76945° -73.76981° 30 min 0.01 0.00
270°
2020 Aug 26, 23:51 39.76945° -73.76978° 30 min 0.01 0.00
113°
2020 Aug 26, 23:21 39.76945° -73.76981° 30 min 0.01 0.00
293°
2020 Aug 26, 22:51 39.76945° -73.76978° 30 min 0.01 0.00
2020 Aug 26, 22:21 39.76944° -73.76978° 30 min 0.01 0.00
123°
2020 Aug 26, 21:51 39.76945° -73.76981° 30 min 0.01 0.00
223°
2020 Aug 26, 21:21 39.76947° -73.76978° 30 min 0.01 0.00
2020 Aug 26, 20:51 39.76945° -73.76978° 30 min 0.01 0.00
2020 Aug 26, 20:21 39.76945° -73.76978° 30 min 0.01 0.00
123°
2020 Aug 26, 19:51 39.76947° -73.76981° 30 min 0.01 0.00
134°
2020 Aug 26, 19:21 39.76948° -73.76982° 30 min 0.01 0.01
131°
2020 Aug 26, 18:51 39.76951° -73.76987° 30 min 0.01 0.00
153°
2020 Aug 26, 18:21 39.76954° -73.76989° 30 min 0.01 0.00
123°
2020 Aug 26, 17:51 39.76956° -73.76993° 30 min 0.01 0.00
90°
2020 Aug 26, 17:21 39.76956° -73.76995° 30 min 0.01 0.00
2020 Aug 26, 16:51 39.76955° -73.76995° 30 min 0.01 0.00
57°
2020 Aug 26, 16:21 39.76954° -73.76997° 30 min 0.01 0.00
90°
2020 Aug 26, 15:51 39.76954° -73.77000° 30 min 0.01 0.00
38°
2020 Aug 26, 15:21 39.76952° -73.77002° 30 min 0.02 0.00
2020 Aug 26, 14:51 39.76951° -73.77002° 30 min 0.02 0.00
2020 Aug 26, 14:21 39.76951° -73.77002° 30 min 0.02 0.00
330°
2020 Aug 26, 13:51 39.76948° -73.77000° 30 min 0.02 0.00
330°
2020 Aug 26, 13:21 39.76945° -73.76997° 30 min 0.02 0.00
2020 Aug 26, 12:51 39.76942° -73.76997° 30 min 0.02 0.00
2020 Aug 26, 12:21 39.76941° -73.76997° 30 min 0.02 0.00
270°
2020 Aug 26, 11:51 39.76941° -73.76995° 30 min 0.02 0.00
317°
2020 Aug 26, 11:21 39.76939° -73.76993° 30 min 0.02 0.00
2020 Aug 26, 10:51 39.76938° -73.76993° 30 min 0.02 0.00
2020 Aug 26, 10:21 39.76938° -73.76993° 30 min 0.02 0.00
2020 Aug 26, 09:51 39.76937° -73.76993° 30 min 0.02 0.00
270°
2020 Aug 26, 09:21 39.76937° -73.76991° 30 min 0.02 0.00
237°
2020 Aug 26, 08:51 39.76938° -73.76989° 30 min 0.01 0.00
303°
2020 Aug 26, 08:21 39.76937° -73.76987° 30 min 0.01 0.00
123°
2020 Aug 26, 07:51 39.76938° -73.76989° 30 min 0.01 0.00
237°
2020 Aug 26, 07:21 39.76939° -73.76987° 30 min 0.01 0.00
180°
2020 Aug 26, 06:51 39.76940° -73.76987° 30 min 0.01 0.00
2020 Aug 26, 06:21 39.76938° -73.76987° 30 min 0.01 0.00
180°
2020 Aug 26, 05:51 39.76940° -73.76987° 30 min 0.01 0.00
180°
2020 Aug 26, 05:21 39.76941° -73.76987° 30 min 0.01 0.00
153°
2020 Aug 26, 04:51 39.76945° -73.76989° 30 min 0.01 0.00
247°
2020 Aug 26, 04:21 39.76945° -73.76987° 30 min 0.01 0.01
123°
2020 Aug 26, 03:51 39.76948° -73.76991° 30 min 0.01 0.00
180°
2020 Aug 26, 03:21 39.76949° -73.76991° 30 min 0.01 0.00
2020 Aug 26, 02:51 39.76947° -73.76991° 30 min 0.01 0.00
2020 Aug 26, 02:21 39.76947° -73.76991° 30 min 0.01 0.00
90°
2020 Aug 26, 01:51 39.76947° -73.76993° 30 min 0.01 0.00
314°
2020 Aug 26, 01:21 39.76945° -73.76991° 30 min 0.01 0.01
195°
2020 Aug 26, 00:51 39.76952° -73.76989° 30 min 0.01 0.00
270°
2020 Aug 26, 00:21 39.76952° -73.76987° 30 min 0.01 0.01
311°
2020 Aug 25, 23:51 39.76949° -73.76982° 30 min 0.01 0.00
2020 Aug 25, 23:21 39.76948° -73.76982° 30 min 0.01 0.00
226°
2020 Aug 25, 22:51 39.76949° -73.76981° 30 min 0.01 0.01
337°
2020 Aug 25, 22:21 39.76945° -73.76978° 30 min 0.01 0.00
2020 Aug 25, 21:51 39.76944° -73.76978° 30 min 0.01 0.00
137°
2020 Aug 25, 21:21 39.76945° -73.76981° 30 min 0.01 0.01
180°
2020 Aug 25, 20:51 39.76950° -73.76981° 30 min 0.01 0.00
2020 Aug 25, 20:21 39.76949° -73.76981° 30 min 0.01 0.00
210°
2020 Aug 25, 19:51 39.76952° -73.76978° 30 min 0.01 0.00
90°
2020 Aug 25, 19:21 39.76952° -73.76981° 30 min 0.01 0.00
2020 Aug 25, 18:51 39.76952° -73.76981° 30 min 0.01 0.00
90°
2020 Aug 25, 18:21 39.76952° -73.76982° 30 min 0.01 0.00
180°
2020 Aug 25, 17:51 39.76954° -73.76982° 30 min 0.01 0.00
2020 Aug 25, 17:21 39.76954° -73.76982° 30 min 0.01 0.00
118°
2020 Aug 25, 16:51 39.76956° -73.76987° 30 min 0.01 0.00
90°
2020 Aug 25, 16:21 39.76956° -73.76989° 30 min 0.01 0.00
90°
2020 Aug 25, 15:51 39.76956° -73.76991° 30 min 0.01 0.00
2020 Aug 25, 15:21 39.76956° -73.76991° 30 min 0.01 0.00
57°
2020 Aug 25, 14:51 39.76955° -73.76993° 30 min 0.01 0.00
2020 Aug 25, 14:21 39.76955° -73.76993° 30 min 0.01 0.00
90°
2020 Aug 25, 13:51 39.76955° -73.76995° 30 min 0.01 0.00
308°
2020 Aug 25, 13:21 39.76953° -73.76991° 30 min 0.01 0.00
46°
2020 Aug 25, 12:51 39.76952° -73.76993° 30 min 0.01 0.00
270°
2020 Aug 25, 12:21 39.76952° -73.76989° 30 min 0.01 0.01
315°
2020 Aug 25, 11:51 39.76947° -73.76982° 30 min 0.01 0.00
270°
2020 Aug 25, 11:21 39.76947° -73.76981° 30 min 0.01 0.00
303°
2020 Aug 25, 10:51 39.76945° -73.76978° 30 min 0.01 0.00
270°
2020 Aug 25, 10:21 39.76945° -73.76976° 30 min 0.01 0.00
2020 Aug 25, 09:51 39.76945° -73.76976° 30 min 0.01 0.00
2020 Aug 25, 09:21 39.76945° -73.76976° 30 min 0.01 0.00
2020 Aug 25, 08:51 39.76945° -73.76976° 30 min 0.01 0.00
180°
2020 Aug 25, 08:21 39.76947° -73.76976° 30 min 0.01 0.00
180°
2020 Aug 25, 07:51 39.76949° -73.76976° 30 min 0.01 0.00
2020 Aug 25, 07:21 39.76949° -73.76976° 30 min 0.01 0.00
180°
2020 Aug 25, 06:51 39.76952° -73.76976° 30 min 0.00 0.00
90°
2020 Aug 25, 06:21 39.76952° -73.76981° 30 min 0.01 0.00
237°
2020 Aug 25, 05:51 39.76953° -73.76978° 30 min 0.01 0.00
180°
2020 Aug 25, 05:21 39.76954° -73.76978° 30 min 0.00 0.00
137°
2020 Aug 25, 04:51 39.76956° -73.76981° 30 min 0.01 0.00
128°
2020 Aug 25, 04:21 39.76958° -73.76984° 30 min 0.01 0.00
90°
2020 Aug 25, 03:51 39.76958° -73.76987° 30 min 0.01 0.00
90°
2020 Aug 25, 03:21 39.76958° -73.76989° 30 min 0.01 0.00
180°
2020 Aug 25, 02:51 39.76960° -73.76989° 30 min 0.01 0.00
2020 Aug 25, 02:21 39.76958° -73.76989° 30 min 0.01 0.00
90°
2020 Aug 25, 01:51 39.76958° -73.76991° 30 min 0.01 0.00
2020 Aug 25, 01:21 39.76956° -73.76991° 30 min 0.01 0.00
134°
2020 Aug 25, 00:51 39.76957° -73.76993° 30 min 0.01 0.00
30°
2020 Aug 25, 00:21 39.76954° -73.76995° 30 min 0.01 0.00
237°
2020 Aug 24, 23:51 39.76956° -73.76991° 30 min 0.01 0.00
298°
2020 Aug 24, 23:21 39.76954° -73.76987° 30 min 0.01 0.01
312°
2020 Aug 24, 22:51 39.76950° -73.76981° 30 min 0.01 0.01
339°
2020 Aug 24, 22:21 39.76945° -73.76978° 30 min 0.01 0.00
2020 Aug 24, 21:51 39.76945° -73.76978° 30 min 0.01 0.00
270°
2020 Aug 24, 21:21 39.76945° -73.76976° 30 min 0.01 0.00
90°
2020 Aug 24, 20:51 39.76945° -73.76978° 30 min 0.01 0.00
90°
2020 Aug 24, 20:21 39.76945° -73.76981° 30 min 0.01 0.00
247°
2020 Aug 24, 19:51 39.76945° -73.76978° 30 min 0.01 0.00
180°
2020 Aug 24, 19:21 39.76948° -73.76978° 30 min 0.01 0.00
90°
2020 Aug 24, 18:51 39.76948° -73.76981° 30 min 0.01 0.00
2020 Aug 24, 18:21 39.76948° -73.76981° 30 min 0.01 0.00
180°
2020 Aug 24, 17:51 39.76949° -73.76981° 30 min 0.01 0.00
210°
2020 Aug 24, 17:21 39.76952° -73.76978° 30 min 0.01 0.00
123°
2020 Aug 24, 16:51 39.76953° -73.76981° 30 min 0.01 0.00
153°
2020 Aug 24, 16:21 39.76955° -73.76982° 30 min 0.01 0.00
90°
2020 Aug 24, 15:51 39.76955° -73.76984° 30 min 0.01 0.00
137°
2020 Aug 24, 15:21 39.76957° -73.76987° 30 min 0.01 0.00
2020 Aug 24, 14:51 39.76956° -73.76987° 30 min 0.01 0.00
123°
2020 Aug 24, 14:21 39.76957° -73.76989° 30 min 0.01 0.00
180°
2020 Aug 24, 13:51 39.76958° -73.76989° 30 min 0.01 0.00
90°
2020 Aug 24, 13:21 39.76958° -73.76993° 30 min 0.01 0.00
90°
2020 Aug 24, 12:51 39.76958° -73.76995° 30 min 0.01 0.00
2020 Aug 24, 12:21 39.76956° -73.76995° 30 min 0.01 0.00
2020 Aug 24, 11:51 39.76956° -73.76995° 30 min 0.01 0.00
2020 Aug 24, 11:21 39.76956° -73.76995° 30 min 0.01 0.00
180°
2020 Aug 24, 10:51 39.76957° -73.76995° 30 min 0.01 0.01
337°
2020 Aug 24, 10:21 39.76953° -73.76993° 30 min 0.01 0.01
303°
2020 Aug 24, 09:51 39.76949° -73.76984° 30 min 0.01 0.00
2020 Aug 24, 09:21 39.76948° -73.76984° 30 min 0.01 0.00
270°
2020 Aug 24, 08:51 39.76948° -73.76982° 30 min 0.01 0.00
123°
2020 Aug 24, 08:21 39.76949° -73.76984° 30 min 0.01 0.00
2020 Aug 24, 07:51 39.76949° -73.76984° 30 min 0.01 0.00
90°
2020 Aug 24, 07:21 39.76949° -73.76987° 30 min 0.01 0.00
180°
2020 Aug 24, 06:51 39.76950° -73.76987° 30 min 0.01 0.00
180°
2020 Aug 24, 06:21 39.76952° -73.76987° 30 min 0.01 0.00
2020 Aug 24, 05:51 39.76951° -73.76987° 30 min 0.01 0.00
180°
2020 Aug 24, 05:21 39.76953° -73.76987° 30 min 0.01 0.00
180°
2020 Aug 24, 04:51 39.76954° -73.76987° 30 min 0.01 0.00
123°
2020 Aug 24, 04:21 39.76955° -73.76989° 30 min 0.01 0.00
113°
2020 Aug 24, 03:51 39.76956° -73.76991° 30 min 0.01 0.00
57°
2020 Aug 24, 03:21 39.76955° -73.76993° 30 min 0.01 0.00
90°
2020 Aug 24, 02:51 39.76955° -73.76995° 30 min 0.01 0.00
2020 Aug 24, 02:21 39.76954° -73.76995° 30 min 0.01 0.00
90°
2020 Aug 24, 01:51 39.76954° -73.76997° 30 min 0.01 0.00
2020 Aug 24, 01:21 39.76952° -73.76997° 30 min 0.01 0.00
90°
2020 Aug 24, 00:51 39.76952° -73.77000° 30 min 0.01 0.00
2020 Aug 24, 00:21 39.76952° -73.77000° 30 min 0.01 0.00
303°
2020 Aug 23, 23:51 39.76951° -73.76997° 30 min 0.01 0.00
317°
2020 Aug 23, 23:21 39.76949° -73.76995° 30 min 0.01 0.00
2020 Aug 23, 22:51 39.76949° -73.76995° 30 min 0.01 0.00
308°
2020 Aug 23, 22:21 39.76947° -73.76991° 30 min 0.01 0.01
311°
2020 Aug 23, 21:51 39.76944° -73.76987° 30 min 0.01 0.01
254°
2020 Aug 23, 21:21 39.76945° -73.76978° 30 min 0.01 0.00
2020 Aug 23, 20:51 39.76945° -73.76978° 30 min 0.01 0.00
270°
2020 Aug 23, 20:21 39.76945° -73.76976° 30 min 0.01 0.00
90°
2020 Aug 23, 19:51 39.76945° -73.76978° 30 min 0.01 0.00
237°
2020 Aug 23, 19:21 39.76947° -73.76976° 30 min 0.01 0.00
180°
2020 Aug 23, 18:51 39.76949° -73.76976° 30 min 0.01 0.00
2020 Aug 23, 18:21 39.76948° -73.76976° 30 min 0.01 0.00
180°
2020 Aug 23, 17:51 39.76949° -73.76976° 30 min 0.01 0.00
137°
2020 Aug 23, 17:21 39.76951° -73.76978° 30 min 0.01 0.00
207°
2020 Aug 23, 16:51 39.76954° -73.76976° 30 min 0.00 0.00
90°
2020 Aug 23, 16:21 39.76954° -73.76981° 30 min 0.01 0.01
136°
2020 Aug 23, 15:51 39.76957° -73.76984° 30 min 0.01 0.00
90°
2020 Aug 23, 15:21 39.76957° -73.76987° 30 min 0.01 0.00
123°
2020 Aug 23, 14:51 39.76958° -73.76989° 30 min 0.01 0.00
123°
2020 Aug 23, 14:21 39.76960° -73.76991° 30 min 0.01 0.00
2020 Aug 23, 13:51 39.76960° -73.76991° 30 min 0.01 0.00
111°
2020 Aug 23, 13:21 39.76961° -73.76995° 30 min 0.01 0.00
90°
2020 Aug 23, 12:51 39.76961° -73.76997° 30 min 0.01 0.00
38°
2020 Aug 23, 12:21 39.76958° -73.77000° 30 min 0.01 0.00
2020 Aug 23, 11:51 39.76958° -73.77000° 30 min 0.01 0.00
2020 Aug 23, 11:21 39.76957° -73.77000° 30 min 0.01 0.00
57°
2020 Aug 23, 10:51 39.76956° -73.77002° 30 min 0.02 0.00
298°
2020 Aug 23, 10:21 39.76954° -73.76997° 30 min 0.01 0.00
2020 Aug 23, 09:51 39.76952° -73.76997° 30 min 0.01 0.00
2020 Aug 23, 09:21 39.76951° -73.76997° 30 min 0.01 0.01
320°
2020 Aug 23, 08:51 39.76947° -73.76993° 30 min 0.01 0.01
303°
2020 Aug 23, 08:21 39.76944° -73.76987° 30 min 0.01 0.00
2020 Aug 23, 07:51 39.76944° -73.76987° 30 min 0.01 0.00
303°
2020 Aug 23, 07:21 39.76942° -73.76984° 30 min 0.01 0.00
270°
2020 Aug 23, 06:51 39.76942° -73.76982° 30 min 0.01 0.00
201°
2020 Aug 23, 06:21 39.76945° -73.76981° 30 min 0.01 0.00
237°
2020 Aug 23, 05:51 39.76947° -73.76978° 30 min 0.01 0.00
180°
2020 Aug 23, 05:21 39.76948° -73.76978° 30 min 0.01 0.00
210°
2020 Aug 23, 04:51 39.76951° -73.76976° 30 min 0.00 0.00
180°
2020 Aug 23, 04:21 39.76952° -73.76976° 30 min 0.00 0.00
123°
2020 Aug 23, 03:51 39.76953° -73.76978° 30 min 0.01 0.00
111°
2020 Aug 23, 03:21 39.76954° -73.76982° 30 min 0.01 0.00
57°
2020 Aug 23, 02:51 39.76953° -73.76984° 30 min 0.01 0.00
142°
2020 Aug 23, 02:21 39.76955° -73.76987° 30 min 0.01 0.00
180°
2020 Aug 23, 01:51 39.76956° -73.76987° 30 min 0.01 0.00
2020 Aug 23, 01:21 39.76956° -73.76987° 30 min 0.01 0.00
2020 Aug 23, 00:51 39.76955° -73.76987° 30 min 0.01 0.00
137°
2020 Aug 23, 00:21 39.76957° -73.76989° 30 min 0.01 0.00
180°
2020 Aug 22, 23:51 39.76958° -73.76989° 30 min 0.01 0.00
2020 Aug 22, 23:21 39.76955° -73.76989° 30 min 0.01 0.00
113°
2020 Aug 22, 22:51 39.76956° -73.76991° 30 min 0.01 0.00
298°
2020 Aug 22, 22:21 39.76954° -73.76987° 30 min 0.01 0.00
288°
2020 Aug 22, 21:51 39.76953° -73.76982° 30 min 0.01 0.00
308°
2020 Aug 22, 21:21 39.76951° -73.76978° 30 min 0.01 0.00
330°
2020 Aug 22, 20:51 39.76948° -73.76976° 30 min 0.01 0.00
90°
2020 Aug 22, 20:21 39.76948° -73.76978° 30 min 0.01 0.00
303°
2020 Aug 22, 19:51 39.76947° -73.76976° 30 min 0.01 0.00
2020 Aug 22, 19:21 39.76947° -73.76976° 30 min 0.01 0.00
2020 Aug 22, 18:51 39.76945° -73.76976° 30 min 0.01 0.00
2020 Aug 22, 18:21 39.76945° -73.76976° 30 min 0.01 0.00
180°
2020 Aug 22, 17:51 39.76947° -73.76976° 30 min 0.01 0.00
180°
2020 Aug 22, 17:21 39.76948° -73.76976° 30 min 0.01 0.00
180°
2020 Aug 22, 16:51 39.76949° -73.76976° 30 min 0.01 0.00
90°
2020 Aug 22, 16:21 39.76949° -73.76978° 30 min 0.01 0.00
180°
2020 Aug 22, 15:51 39.76950° -73.76978° 30 min 0.01 0.00
137°
2020 Aug 22, 15:21 39.76952° -73.76981° 30 min 0.01 0.00
180°
2020 Aug 22, 14:51 39.76954° -73.76981° 30 min 0.01 0.00
148°
2020 Aug 22, 14:21 39.76956° -73.76982° 30 min 0.01 0.00
153°
2020 Aug 22, 13:51 39.76960° -73.76984° 30 min 0.01 0.00
57°
2020 Aug 22, 13:21 39.76958° -73.76987° 30 min 0.01 0.00
180°
2020 Aug 22, 12:51 39.76960° -73.76987° 30 min 0.01 0.00
123°
2020 Aug 22, 12:21 39.76961° -73.76989° 30 min 0.01 0.00
2020 Aug 22, 11:51 39.76960° -73.76989° 30 min 0.01 0.00
2020 Aug 22, 11:21 39.76960° -73.76989° 30 min 0.01 0.00
57°
2020 Aug 22, 10:51 39.76958° -73.76991° 30 min 0.01 0.00
46°
2020 Aug 22, 10:21 39.76957° -73.76993° 30 min 0.01 0.01
284°
2020 Aug 22, 09:51 39.76956° -73.76987° 30 min 0.01 0.00
2020 Aug 22, 09:21 39.76955° -73.76987° 30 min 0.01 0.01
306°
2020 Aug 22, 08:51 39.76952° -73.76981° 30 min 0.01 0.00
303°
2020 Aug 22, 08:21 39.76951° -73.76978° 30 min 0.01 0.00
270°
2020 Aug 22, 07:51 39.76951° -73.76976° 30 min 0.00 0.00
317°
2020 Aug 22, 07:21 39.76949° -73.76974° 30 min 0.01 0.00
2020 Aug 22, 06:51 39.76948° -73.76974° 30 min 0.01 0.00
237°
2020 Aug 22, 06:21 39.76949° -73.76971° 30 min 0.00 0.00
226°
2020 Aug 22, 05:51 39.76950° -73.76970° 30 min 0.00 0.00
2020 Aug 22, 05:21 39.76950° -73.76970° 30 min 0.00 0.00
180°
2020 Aug 22, 04:51 39.76952° -73.76970° 30 min 0.00 0.00
180°
2020 Aug 22, 04:21 39.76953° -73.76970° 30 min 0.00 0.00
2020 Aug 22, 03:51 39.76953° -73.76970° 30 min 0.00 0.00
134°
2020 Aug 22, 03:21 39.76954° -73.76971° 30 min 0.00 0.00
180°
2020 Aug 22, 02:51 39.76956° -73.76971° 30 min 0.00 0.00
180°
2020 Aug 22, 02:21 39.76958° -73.76971° 30 min 0.00 0.00
90°
2020 Aug 22, 01:51 39.76958° -73.76974° 30 min 0.00 0.00
108°
2020 Aug 22, 01:21 39.76960° -73.76978° 30 min 0.00 0.00
180°
2020 Aug 22, 00:51 39.76963° -73.76978° 30 min 0.01 0.00
90°
2020 Aug 22, 00:21 39.76963° -73.76982° 30 min 0.01 0.00
2020 Aug 21, 23:51 39.76962° -73.76982° 30 min 0.01 0.00
180°
2020 Aug 21, 23:21 39.76963° -73.76982° 30 min 0.01 0.00
2020 Aug 21, 22:51 39.76961° -73.76982° 30 min 0.01 0.00
137°
2020 Aug 21, 22:21 39.76963° -73.76984° 30 min 0.01 0.00
90°
2020 Aug 21, 21:51 39.76963° -73.76987° 30 min 0.01 0.00
2020 Aug 21, 21:21 39.76961° -73.76987° 30 min 0.01 0.00
270°
2020 Aug 21, 20:51 39.76961° -73.76984° 30 min 0.01 0.00
291°
2020 Aug 21, 20:21 39.76960° -73.76981° 30 min 0.01 0.00
333°
2020 Aug 21, 19:51 39.76956° -73.76978° 30 min 0.00 0.01
2020 Aug 21, 19:21 39.76951° -73.76978° 30 min 0.01 0.00
2020 Aug 21, 18:51 39.76948° -73.76978° 30 min 0.01 0.00
57°
2020 Aug 21, 18:21 39.76947° -73.76981° 30 min 0.01 0.00
317°
2020 Aug 21, 17:51 39.76945° -73.76978° 30 min 0.01 0.00
180°
2020 Aug 21, 17:21 39.76945° -73.76978° 30 min 0.01 0.00
2020 Aug 21, 16:51 39.76945° -73.76978° 30 min 0.01 0.00
218°
2020 Aug 21, 16:21 39.76948° -73.76976° 30 min 0.01 0.00
180°
2020 Aug 21, 15:51 39.76949° -73.76976° 30 min 0.01 0.00
180°
2020 Aug 21, 15:21 39.76950° -73.76976° 30 min 0.01 0.00
113°
2020 Aug 21, 14:51 39.76951° -73.76978° 30 min 0.01 0.00
2020 Aug 21, 14:21 39.76950° -73.76978° 30 min 0.01 0.01
180°
2020 Aug 21, 13:51 39.76954° -73.76978° 30 min 0.00 0.00
69°
2020 Aug 21, 13:21 39.76953° -73.76982° 30 min 0.01 0.01
162°
2020 Aug 21, 12:51 39.76958° -73.76984° 30 min 0.01 0.00
38°
2020 Aug 21, 12:21 39.76956° -73.76987° 30 min 0.01 0.00
180°
2020 Aug 21, 11:51 39.76958° -73.76987° 30 min 0.01 0.00
180°
2020 Aug 21, 11:21 39.76960° -73.76987° 30 min 0.01 0.00
142°
2020 Aug 21, 10:51 39.76962° -73.76989° 30 min 0.01 0.00
303°
2020 Aug 21, 10:21 39.76961° -73.76987° 30 min 0.01 0.00
38°
2020 Aug 21, 09:51 39.76958° -73.76989° 30 min 0.01 0.00
237°
2020 Aug 21, 09:21 39.76960° -73.76987° 30 min 0.01 0.00
2020 Aug 21, 08:51 39.76960° -73.76987° 30 min 0.01 0.00
303°
2020 Aug 21, 08:21 39.76958° -73.76984° 30 min 0.01 0.00
308°
2020 Aug 21, 07:51 39.76956° -73.76981° 30 min 0.01 0.01
320°
2020 Aug 21, 07:21 39.76952° -73.76976° 30 min 0.00 0.00
2020 Aug 21, 06:51 39.76950° -73.76976° 30 min 0.01 0.00
2020 Aug 21, 06:21 39.76949° -73.76976° 30 min 0.01 0.00
2020 Aug 21, 05:51 39.76947° -73.76976° 30 min 0.01 0.00
180°
2020 Aug 21, 05:21 39.76948° -73.76976° 30 min 0.01 0.00
180°
2020 Aug 21, 04:51 39.76949° -73.76976° 30 min 0.01 0.00
180°
2020 Aug 21, 04:21 39.76950° -73.76976° 30 min 0.01 0.00
180°
2020 Aug 21, 03:51 39.76951° -73.76976° 30 min 0.00 0.00
90°
2020 Aug 21, 03:21 39.76951° -73.76978° 30 min 0.01 0.00
180°
2020 Aug 21, 02:51 39.76952° -73.76978° 30 min 0.01 0.00
123°
2020 Aug 21, 02:21 39.76953° -73.76981° 30 min 0.01 0.00
90°
2020 Aug 21, 01:51 39.76953° -73.76984° 30 min 0.01 0.01
131°
2020 Aug 21, 01:21 39.76956° -73.76989° 30 min 0.01 0.00
90°
2020 Aug 21, 00:51 39.76956° -73.76991° 30 min 0.01 0.00
90°
2020 Aug 21, 00:21 39.76956° -73.76993° 30 min 0.01 0.00
90°
2020 Aug 20, 23:51 39.76956° -73.76995° 30 min 0.01 0.00
90°
2020 Aug 20, 23:21 39.76956° -73.76997° 30 min 0.01 0.00
2020 Aug 20, 22:51 39.76955° -73.76997° 30 min 0.01 0.00
2020 Aug 20, 22:21 39.76952° -73.76997° 30 min 0.01 0.00
90°
2020 Aug 20, 21:51 39.76952° -73.77000° 30 min 0.01 0.00
2020 Aug 20, 21:21 39.76952° -73.77000° 30 min 0.01 0.00
90°
2020 Aug 20, 20:51 39.76952° -73.77002° 30 min 0.02 0.00
2020 Aug 20, 20:21 39.76951° -73.77002° 30 min 0.02 0.01
337°
2020 Aug 20, 19:51 39.76947° -73.77000° 30 min 0.02 0.00
317°
2020 Aug 20, 19:21 39.76945° -73.76997° 30 min 0.02 0.00
322°
2020 Aug 20, 18:51 39.76942° -73.76995° 30 min 0.01 0.01
316°
2020 Aug 20, 18:21 39.76939° -73.76991° 30 min 0.01 0.00
258°
2020 Aug 20, 17:51 39.76940° -73.76987° 30 min 0.01 0.00
2020 Aug 20, 17:21 39.76940° -73.76987° 30 min 0.01 0.00
2020 Aug 20, 16:51 39.76940° -73.76987° 30 min 0.01 0.00
2020 Aug 20, 16:21 39.76939° -73.76987° 30 min 0.01 0.00
180°
2020 Aug 20, 15:51 39.76941° -73.76987° 30 min 0.01 0.00
180°
2020 Aug 20, 15:21 39.76942° -73.76987° 30 min 0.01 0.00
180°
2020 Aug 20, 14:51 39.76944° -73.76987° 30 min 0.01 0.00
180°
2020 Aug 20, 14:21 39.76945° -73.76987° 30 min 0.01 0.00
2020 Aug 20, 13:51 39.76945° -73.76987° 30 min 0.01 0.01
97°
2020 Aug 20, 13:21 39.76945° -73.76995° 30 min 0.01 0.00
153°
2020 Aug 20, 12:51 39.76949° -73.76997° 30 min 0.01 0.00
150°
2020 Aug 20, 12:21 39.76952° -73.77000° 30 min 0.01 0.00
142°
2020 Aug 20, 11:51 39.76954° -73.77002° 30 min 0.02 0.00
2020 Aug 20, 11:21 39.76954° -73.77002° 30 min 0.02 0.00
2020 Aug 20, 10:51 39.76954° -73.77002° 30 min 0.02 0.00
2020 Aug 20, 10:21 39.76954° -73.77002° 30 min 0.02 0.00
2020 Aug 20, 09:51 39.76952° -73.77002° 30 min 0.02 0.00
2020 Aug 20, 09:21 39.76952° -73.77002° 30 min 0.02 0.00
2020 Aug 20, 08:51 39.76951° -73.77002° 30 min 0.02 0.00
180°
2020 Aug 20, 08:21 39.76952° -73.77002° 30 min 0.02 0.00
303°
2020 Aug 20, 07:51 39.76951° -73.77000° 30 min 0.01 0.00
2020 Aug 20, 07:21 39.76948° -73.77000° 30 min 0.02 0.00
2020 Aug 20, 06:51 39.76945° -73.77000° 30 min 0.02 0.01
290°
2020 Aug 20, 06:21 39.76944° -73.76993° 30 min 0.01 0.00
308°
2020 Aug 20, 05:51 39.76941° -73.76989° 30 min 0.01 0.00
218°
2020 Aug 20, 05:21 39.76944° -73.76987° 30 min 0.01 0.00
2020 Aug 20, 04:51 39.76942° -73.76987° 30 min 0.01 0.00
180°
2020 Aug 20, 04:21 39.76944° -73.76987° 30 min 0.01 0.00
2020 Aug 20, 03:51 39.76944° -73.76987° 30 min 0.01 0.00
270°
2020 Aug 20, 03:21 39.76944° -73.76984° 30 min 0.01 0.00
90°
2020 Aug 20, 02:51 39.76944° -73.76987° 30 min 0.01 0.00
2020 Aug 20, 02:21 39.76944° -73.76987° 30 min 0.01 0.00
180°
2020 Aug 20, 01:51 39.76945° -73.76987° 30 min 0.01 0.00
180°
2020 Aug 20, 01:21 39.76945° -73.76987° 30 min 0.01 0.00
180°
2020 Aug 20, 00:51 39.76948° -73.76987° 30 min 0.01 0.01
57°
2020 Aug 20, 00:21 39.76945° -73.76991° 30 min 0.01 0.00
134°
2020 Aug 19, 23:51 39.76947° -73.76993° 30 min 0.01 0.00
180°
2020 Aug 19, 23:21 39.76949° -73.76993° 30 min 0.01 0.00
57°
2020 Aug 19, 22:51 39.76948° -73.76995° 30 min 0.01 0.00
2020 Aug 19, 22:21 39.76948° -73.76995° 30 min 0.01 0.00
210°
2020 Aug 19, 21:51 39.76951° -73.76993° 30 min 0.01 0.00
78°
2020 Aug 19, 21:21 39.76950° -73.76997° 30 min 0.01 0.00
180°
2020 Aug 19, 20:51 39.76951° -73.76997° 30 min 0.01 0.00
330°
2020 Aug 19, 20:21 39.76948° -73.76995° 30 min 0.01 0.00
38°
2020 Aug 19, 19:51 39.76945° -73.76997° 30 min 0.01 0.00
330°
2020 Aug 19, 19:21 39.76942° -73.76995° 30 min 0.01 0.01
316°
2020 Aug 19, 18:51 39.76939° -73.76991° 30 min 0.01 0.00
258°
2020 Aug 19, 18:21 39.76940° -73.76987° 30 min 0.01 0.00
282°
2020 Aug 19, 17:51 39.76939° -73.76982° 30 min 0.01 0.00
270°
2020 Aug 19, 17:21 39.76939° -73.76981° 30 min 0.01 0.00
247°
2020 Aug 19, 16:51 39.76940° -73.76978° 30 min 0.01 0.00
207°
2020 Aug 19, 16:21 39.76944° -73.76976° 30 min 0.01 0.01
57°
2020 Aug 19, 15:51 39.76941° -73.76981° 30 min 0.01 0.00
180°
2020 Aug 19, 15:21 39.76942° -73.76981° 30 min 0.01 0.00
180°
2020 Aug 19, 14:51 39.76945° -73.76981° 30 min 0.01 0.00
2020 Aug 19, 14:21 39.76945° -73.76981° 30 min 0.01 0.00
90°
2020 Aug 19, 13:51 39.76945° -73.76982° 30 min 0.01 0.00
212°
2020 Aug 19, 13:21 39.76947° -73.76981° 30 min 0.01 0.00
90°
2020 Aug 19, 12:51 39.76947° -73.76982° 30 min 0.01 0.00
2020 Aug 19, 12:21 39.76947° -73.76982° 30 min 0.01 0.01
180°
2020 Aug 19, 11:51 39.76951° -73.76982° 30 min 0.01 0.00
123°
2020 Aug 19, 11:21 39.76952° -73.76984° 30 min 0.01 0.00
142°
2020 Aug 19, 10:51 39.76954° -73.76987° 30 min 0.01 0.00
2020 Aug 19, 10:21 39.76954° -73.76987° 30 min 0.01 0.00
2020 Aug 19, 09:51 39.76954° -73.76987° 30 min 0.01 0.00
180°
2020 Aug 19, 09:21 39.76955° -73.76987° 30 min 0.01 0.00
303°
2020 Aug 19, 08:51 39.76954° -73.76984° 30 min 0.01 0.00
180°
2020 Aug 19, 08:21 39.76955° -73.76984° 30 min 0.01 0.00
291°
2020 Aug 19, 07:51 39.76954° -73.76981° 30 min 0.01 0.00
2020 Aug 19, 07:21 39.76952° -73.76981° 30 min 0.01 0.00
303°
2020 Aug 19, 06:51 39.76951° -73.76978° 30 min 0.01 0.00
298°
2020 Aug 19, 06:21 39.76949° -73.76974° 30 min 0.01 0.00
2020 Aug 19, 05:51 39.76945° -73.76974° 30 min 0.01 0.00
2020 Aug 19, 05:21 39.76945° -73.76974° 30 min 0.01 0.00
180°
2020 Aug 19, 04:51 39.76945° -73.76974° 30 min 0.01 0.00
180°
2020 Aug 19, 04:21 39.76947° -73.76974° 30 min 0.01 0.00
180°
2020 Aug 19, 03:51 39.76948° -73.76974° 30 min 0.01 0.00
2020 Aug 19, 03:21 39.76947° -73.76974° 30 min 0.01 0.00
2020 Aug 19, 02:51 39.76947° -73.76974° 30 min 0.01 0.00
180°
2020 Aug 19, 02:21 39.76949° -73.76974° 30 min 0.01 0.00
90°
2020 Aug 19, 01:51 39.76949° -73.76976° 30 min 0.01 0.00
123°
2020 Aug 19, 01:21 39.76950° -73.76978° 30 min 0.01 0.00
2020 Aug 19, 00:51 39.76950° -73.76978° 30 min 0.01 0.00
137°
2020 Aug 19, 00:21 39.76952° -73.76981° 30 min 0.01 0.00
134°
2020 Aug 18, 23:51 39.76953° -73.76982° 30 min 0.01 0.00
57°
2020 Aug 18, 23:21 39.76952° -73.76984° 30 min 0.01 0.00
123°
2020 Aug 18, 22:51 39.76953° -73.76987° 30 min 0.01 0.00
57°
2020 Aug 18, 22:21 39.76952° -73.76989° 30 min 0.01 0.00
180°
2020 Aug 18, 21:51 39.76953° -73.76989° 30 min 0.01 0.00
90°
2020 Aug 18, 21:21 39.76953° -73.76991° 30 min 0.01 0.00
134°
2020 Aug 18, 20:51 39.76954° -73.76993° 30 min 0.01 0.00
27°
2020 Aug 18, 20:21 39.76951° -73.76995° 30 min 0.01 0.00
30°
2020 Aug 18, 19:51 39.76948° -73.76997° 30 min 0.01 0.00
322°
2020 Aug 18, 19:21 39.76945° -73.76995° 30 min 0.01 0.01
316°
2020 Aug 18, 18:51 39.76942° -73.76991° 30 min 0.01 0.00
2020 Aug 18, 18:21 39.76941° -73.76991° 30 min 0.01 0.00
2020 Aug 18, 17:51 39.76941° -73.76991° 30 min 0.01 0.00
303°
2020 Aug 18, 17:21 39.76940° -73.76989° 30 min 0.01 0.00
2020 Aug 18, 16:51 39.76939° -73.76989° 30 min 0.01 0.00
303°
2020 Aug 18, 16:21 39.76938° -73.76987° 30 min 0.01 0.00
237°
2020 Aug 18, 15:51 39.76939° -73.76984° 30 min 0.01 0.00
180°
2020 Aug 18, 15:21 39.76940° -73.76984° 30 min 0.01 0.00
2020 Aug 18, 14:51 39.76940° -73.76984° 30 min 0.01 0.00
2020 Aug 18, 14:21 39.76940° -73.76984° 30 min 0.01 0.00
293°
2020 Aug 18, 13:51 39.76939° -73.76982° 30 min 0.01 0.00
118°
2020 Aug 18, 13:21 39.76941° -73.76987° 30 min 0.01 0.00
180°
2020 Aug 18, 12:51 39.76944° -73.76987° 30 min 0.01 0.00
303°
2020 Aug 18, 12:21 39.76942° -73.76984° 30 min 0.01 0.00
90°
2020 Aug 18, 11:51 39.76942° -73.76987° 30 min 0.01 0.00
180°
2020 Aug 18, 11:21 39.76945° -73.76987° 30 min 0.01 0.00
270°
2020 Aug 18, 10:51 39.76945° -73.76984° 30 min 0.01 0.00
2020 Aug 18, 10:21 39.76945° -73.76984° 30 min 0.01 0.00
2020 Aug 18, 09:51 39.76945° -73.76984° 30 min 0.01 0.00
270°
2020 Aug 18, 09:21 39.76945° -73.76982° 30 min 0.01 0.01
191°
2020 Aug 18, 08:51 39.76951° -73.76981° 30 min 0.01 0.00
180°
2020 Aug 18, 08:21 39.76952° -73.76981° 30 min 0.01 0.00
2020 Aug 18, 07:51 39.76951° -73.76981° 30 min 0.01 0.00
237°
2020 Aug 18, 07:21 39.76952° -73.76978° 30 min 0.01 0.00
237°
2020 Aug 18, 06:51 39.76953° -73.76976° 30 min 0.00 0.00
2020 Aug 18, 06:21 39.76951° -73.76976° 30 min 0.00 0.00
293°
2020 Aug 18, 05:51 39.76950° -73.76974° 30 min 0.00 0.00
2020 Aug 18, 05:21 39.76950° -73.76974° 30 min 0.00 0.00
322°
2020 Aug 18, 04:51 39.76948° -73.76971° 30 min 0.01 0.00
123°
2020 Aug 18, 04:21 39.76949° -73.76974° 30 min 0.01 0.00
2020 Aug 18, 03:51 39.76948° -73.76974° 30 min 0.01 0.00
2020 Aug 18, 03:21 39.76948° -73.76974° 30 min 0.01 0.00
218°
2020 Aug 18, 02:51 39.76950° -73.76971° 30 min 0.00 0.00
180°
2020 Aug 18, 02:21 39.76951° -73.76971° 30 min 0.00 0.00
90°
2020 Aug 18, 01:51 39.76951° -73.76974° 30 min 0.00 0.00
123°
2020 Aug 18, 01:21 39.76952° -73.76976° 30 min 0.00 0.00
2020 Aug 18, 00:51 39.76952° -73.76976° 30 min 0.00 0.00
180°
2020 Aug 18, 00:21 39.76955° -73.76976° 30 min 0.00 0.00
113°
2020 Aug 17, 23:51 39.76956° -73.76978° 30 min 0.00 0.00
67°
2020 Aug 17, 23:21 39.76955° -73.76981° 30 min 0.01 0.00
148°
2020 Aug 17, 22:51 39.76957° -73.76982° 30 min 0.01 0.00
123°
2020 Aug 17, 22:21 39.76958° -73.76984° 30 min 0.01 0.00
57°
2020 Aug 17, 21:51 39.76957° -73.76987° 30 min 0.01 0.00
90°
2020 Aug 17, 21:21 39.76957° -73.76989° 30 min 0.01 0.00
90°
2020 Aug 17, 20:51 39.76957° -73.76991° 30 min 0.01 0.00
90°
2020 Aug 17, 20:21 39.76957° -73.76993° 30 min 0.01 0.00
2020 Aug 17, 19:51 39.76956° -73.76993° 30 min 0.01 0.00
90°
2020 Aug 17, 19:21 39.76956° -73.76997° 30 min 0.01 0.00
2020 Aug 17, 18:51 39.76953° -73.76997° 30 min 0.01 0.00
2020 Aug 17, 18:21 39.76951° -73.76997° 30 min 0.01 0.00
2020 Aug 17, 17:51 39.76948° -73.76997° 30 min 0.01 0.01
337°
2020 Aug 17, 17:21 39.76944° -73.76995° 30 min 0.01 0.00
2020 Aug 17, 16:51 39.76941° -73.76995° 30 min 0.02 0.00
291°
2020 Aug 17, 16:21 39.76940° -73.76991° 30 min 0.01 0.00
270°
2020 Aug 17, 15:51 39.76940° -73.76989° 30 min 0.01 0.00
2020 Aug 17, 15:21 39.76940° -73.76989° 30 min 0.01 0.00
293°
2020 Aug 17, 14:51 39.76939° -73.76987° 30 min 0.01 0.00
180°
2020 Aug 17, 14:21 39.76940° -73.76987° 30 min 0.01 0.00
2020 Aug 17, 13:51 39.76940° -73.76987° 30 min 0.01 0.00
180°
2020 Aug 17, 13:21 39.76941° -73.76987° 30 min 0.01 0.00
180°
2020 Aug 17, 12:51 39.76942° -73.76987° 30 min 0.01 0.00
2020 Aug 17, 12:21 39.76940° -73.76987° 30 min 0.01 0.00
270°
2020 Aug 17, 11:51 39.76940° -73.76984° 30 min 0.01 0.00
142°
2020 Aug 17, 11:21 39.76942° -73.76987° 30 min 0.01 0.00
123°
2020 Aug 17, 10:51 39.76944° -73.76989° 30 min 0.01 0.00
180°
2020 Aug 17, 10:21